sensor_id;sensor_type;location;lat;lon;timestamp;pressure;altitude;pressure_sealevel;temperature;humidity
10668;BME280;5382;42.136;24.796;2023-04-01T00:01:41;99068.38;;;10.92;100.00
10668;BME280;5382;42.136;24.796;2023-04-01T00:04:08;99084.41;;;11.00;100.00
10668;BME280;5382;42.136;24.796;2023-04-01T00:06:35;99085.25;;;11.01;100.00
10668;BME280;5382;42.136;24.796;2023-04-01T00:09:02;99079.72;;;11.13;100.00
10668;BME280;5382;42.136;24.796;2023-04-01T00:11:29;99070.94;;;11.13;100.00
10668;BME280;5382;42.136;24.796;2023-04-01T00:13:55;99068.59;;;11.20;100.00
10668;BME280;5382;42.136;24.796;2023-04-01T00:16:22;99073.06;;;11.19;100.00
10668;BME280;5382;42.136;24.796;2023-04-01T00:18:51;99091.41;;;11.11;100.00
10668;BME280;5382;42.136;24.796;2023-04-01T00:21:19;99087.19;;;10.99;100.00
10668;BME280;5382;42.136;24.796;2023-04-01T00:23:47;99078.53;;;10.97;100.00
10668;BME280;5382;42.136;24.796;2023-04-01T00:26:14;99070.59;;;10.97;100.00
10668;BME280;5382;42.136;24.796;2023-04-01T00:28:44;99046.56;;;10.79;100.00
10668;BME280;5382;42.136;24.796;2023-04-01T00:31:11;99092.25;;;11.11;100.00
10668;BME280;5382;42.136;24.796;2023-04-01T00:33:39;99084.03;;;11.14;100.00
10668;BME280;5382;42.136;24.796;2023-04-01T00:36:09;99085.47;;;11.19;100.00
10668;BME280;5382;42.136;24.796;2023-04-01T00:38:36;99091.72;;;11.18;100.00
10668;BME280;5382;42.136;24.796;2023-04-01T00:41:05;99091.34;;;11.32;100.00
10668;BME280;5382;42.136;24.796;2023-04-01T00:43:33;99081.97;;;11.28;100.00
10668;BME280;5382;42.136;24.796;2023-04-01T00:46:00;99083.81;;;11.27;100.00
10668;BME280;5382;42.136;24.796;2023-04-01T00:48:29;99086.50;;;11.37;100.00
10668;BME280;5382;42.136;24.796;2023-04-01T00:51:00;99077.84;;;11.35;100.00
10668;BME280;5382;42.136;24.796;2023-04-01T00:53:31;99081.75;;;11.31;100.00
10668;BME280;5382;42.136;24.796;2023-04-01T00:56:02;99084.94;;;11.34;100.00
10668;BME280;5382;42.136;24.796;2023-04-01T00:58:34;99085.50;;;11.38;100.00
10668;BME280;5382;42.136;24.796;2023-04-01T01:01:03;99083.03;;;11.46;100.00
10668;BME280;5382;42.136;24.796;2023-04-01T01:03:31;99075.94;;;11.56;100.00
10668;BME280;5382;42.136;24.796;2023-04-01T01:06:08;99071.06;;;11.52;100.00
10668;BME280;5382;42.136;24.796;2023-04-01T01:09:02;99069.66;;;11.57;100.00
10668;BME280;5382;42.136;24.796;2023-04-01T01:11:39;99070.22;;;11.51;100.00
10668;BME280;5382;42.136;24.796;2023-04-01T01:14:13;99062.41;;;11.50;100.00
10668;BME280;5382;42.136;24.796;2023-04-01T01:16:44;99067.84;;;11.58;100.00
10668;BME280;5382;42.136;24.796;2023-04-01T01:19:26;99076.19;;;11.53;100.00
10668;BME280;5382;42.136;24.796;2023-04-01T01:22:22;99075.38;;;11.53;100.00
10668;BME280;5382;42.136;24.796;2023-04-01T01:25:08;99070.91;;;11.44;100.00
10668;BME280;5382;42.136;24.796;2023-04-01T01:27:42;99074.06;;;11.38;100.00
10668;BME280;5382;42.136;24.796;2023-04-01T01:30:22;99078.09;;;11.32;100.00
10668;BME280;5382;42.136;24.796;2023-04-01T01:33:18;99074.47;;;11.33;100.00
10668;BME280;5382;42.136;24.796;2023-04-01T01:35:50;99072.25;;;11.38;100.00
10668;BME280;5382;42.136;24.796;2023-04-01T01:38:19;99063.19;;;11.41;100.00
10668;BME280;5382;42.136;24.796;2023-04-01T01:40:50;99049.69;;;11.34;100.00
10668;BME280;5382;42.136;24.796;2023-04-01T01:43:21;99051.09;;;11.48;100.00
10668;BME280;5382;42.136;24.796;2023-04-01T01:45:53;99037.16;;;11.36;100.00
10668;BME280;5382;42.136;24.796;2023-04-01T01:48:22;99053.06;;;11.55;100.00
10668;BME280;5382;42.136;24.796;2023-04-01T01:50:52;99040.94;;;11.63;100.00
10668;BME280;5382;42.136;24.796;2023-04-01T01:53:19;99041.47;;;11.47;100.00
10668;BME280;5382;42.136;24.796;2023-04-01T01:55:47;99042.19;;;11.49;100.00
10668;BME280;5382;42.136;24.796;2023-04-01T01:58:17;99037.13;;;11.46;100.00
10668;BME280;5382;42.136;24.796;2023-04-01T02:00:49;99028.53;;;11.44;100.00
10668;BME280;5382;42.136;24.796;2023-04-01T02:03:17;99025.97;;;11.32;100.00
10668;BME280;5382;42.136;24.796;2023-04-01T02:05:47;99029.88;;;11.28;100.00
10668;BME280;5382;42.136;24.796;2023-04-01T02:08:20;99032.34;;;11.20;100.00
10668;BME280;5382;42.136;24.796;2023-04-01T02:10:53;99027.28;;;11.07;100.00
10668;BME280;5382;42.136;24.796;2023-04-01T02:13:27;99023.25;;;11.03;100.00
10668;BME280;5382;42.136;24.796;2023-04-01T02:15:59;99027.56;;;11.04;100.00
10668;BME280;5382;42.136;24.796;2023-04-01T02:18:28;99027.28;;;10.98;100.00
10668;BME280;5382;42.136;24.796;2023-04-01T02:20:57;99021.28;;;10.96;100.00
10668;BME280;5382;42.136;24.796;2023-04-01T02:23:27;99036.16;;;10.87;100.00
10668;BME280;5382;42.136;24.796;2023-04-01T02:25:55;99043.56;;;10.62;100.00
10668;BME280;5382;42.136;24.796;2023-04-01T02:28:23;99049.78;;;10.52;100.00
10668;BME280;5382;42.136;24.796;2023-04-01T02:30:51;99049.97;;;10.39;100.00
10668;BME280;5382;42.136;24.796;2023-04-01T02:33:19;99034.38;;;10.36;100.00
10668;BME280;5382;42.136;24.796;2023-04-01T02:35:47;99035.41;;;10.44;100.00
10668;BME280;5382;42.136;24.796;2023-04-01T02:38:14;99016.59;;;10.26;100.00
10668;BME280;5382;42.136;24.796;2023-04-01T02:40:45;99010.94;;;10.10;100.00
10668;BME280;5382;42.136;24.796;2023-04-01T02:43:12;99011.84;;;9.99;100.00
10668;BME280;5382;42.136;24.796;2023-04-01T02:45:39;99011.59;;;9.81;100.00
10668;BME280;5382;42.136;24.796;2023-04-01T02:48:06;99020.31;;;9.61;100.00
10668;BME280;5382;42.136;24.796;2023-04-01T02:50:33;99028.50;;;9.58;100.00
10668;BME280;5382;42.136;24.796;2023-04-01T02:53:01;99030.94;;;9.38;100.00
10668;BME280;5382;42.136;24.796;2023-04-01T02:55:29;99031.28;;;9.45;100.00
10668;BME280;5382;42.136;24.796;2023-04-01T02:57:57;99031.06;;;9.37;100.00
10668;BME280;5382;42.136;24.796;2023-04-01T03:00:24;99031.69;;;9.29;100.00
10668;BME280;5382;42.136;24.796;2023-04-01T03:02:51;99032.06;;;9.13;100.00
10668;BME280;5382;42.136;24.796;2023-04-01T03:05:19;99017.72;;;9.06;100.00
10668;BME280;5382;42.136;24.796;2023-04-01T03:07:46;99021.06;;;8.97;100.00
10668;BME280;5382;42.136;24.796;2023-04-01T03:10:13;99028.88;;;8.99;100.00
10668;BME280;5382;42.136;24.796;2023-04-01T03:12:40;99023.25;;;8.81;100.00
10668;BME280;5382;42.136;24.796;2023-04-01T03:15:10;99027.41;;;8.72;100.00
10668;BME280;5382;42.136;24.796;2023-04-01T03:17:37;99022.38;;;8.69;100.00
10668;BME280;5382;42.136;24.796;2023-04-01T03:20:05;99035.81;;;8.66;100.00
10668;BME280;5382;42.136;24.796;2023-04-01T03:22:33;99035.69;;;8.56;100.00
10668;BME280;5382;42.136;24.796;2023-04-01T03:25:00;99028.63;;;8.68;100.00
10668;BME280;5382;42.136;24.796;2023-04-01T03:27:28;99028.28;;;8.72;100.00
10668;BME280;5382;42.136;24.796;2023-04-01T03:29:55;99017.94;;;8.69;100.00
10668;BME280;5382;42.136;24.796;2023-04-01T03:32:23;99004.56;;;8.72;100.00
10668;BME280;5382;42.136;24.796;2023-04-01T03:34:50;99011.97;;;8.79;100.00
10668;BME280;5382;42.136;24.796;2023-04-01T03:37:16;99014.84;;;8.87;100.00
10668;BME280;5382;42.136;24.796;2023-04-01T03:39:43;99006.53;;;9.03;100.00
10668;BME280;5382;42.136;24.796;2023-04-01T03:42:10;99006.06;;;9.09;100.00
10668;BME280;5382;42.136;24.796;2023-04-01T03:44:37;98997.06;;;9.11;100.00
10668;BME280;5382;42.136;24.796;2023-04-01T03:47:04;98987.66;;;9.18;100.00
10668;BME280;5382;42.136;24.796;2023-04-01T03:49:32;99003.28;;;9.22;100.00
10668;BME280;5382;42.136;24.796;2023-04-01T03:51:59;98998.22;;;9.18;100.00
10668;BME280;5382;42.136;24.796;2023-04-01T03:54:26;99002.53;;;9.31;100.00
10668;BME280;5382;42.136;24.796;2023-04-01T03:56:53;99004.59;;;9.16;100.00
10668;BME280;5382;42.136;24.796;2023-04-01T03:59:20;98995.47;;;9.20;100.00
10668;BME280;5382;42.136;24.796;2023-04-01T04:01:47;98999.56;;;9.13;100.00
10668;BME280;5382;42.136;24.796;2023-04-01T04:04:14;98988.28;;;9.11;100.00
10668;BME280;5382;42.136;24.796;2023-04-01T04:06:42;98968.63;;;9.15;100.00
10668;BME280;5382;42.136;24.796;2023-04-01T04:09:09;98978.91;;;9.29;100.00
10668;BME280;5382;42.136;24.796;2023-04-01T04:11:36;98977.47;;;9.25;100.00
10668;BME280;5382;42.136;24.796;2023-04-01T04:14:03;98980.19;;;9.35;100.00
10668;BME280;5382;42.136;24.796;2023-04-01T04:16:30;98988.44;;;9.42;100.00
10668;BME280;5382;42.136;24.796;2023-04-01T04:18:57;98969.38;;;9.38;100.00
10668;BME280;5382;42.136;24.796;2023-04-01T04:21:23;98977.88;;;9.42;100.00
10668;BME280;5382;42.136;24.796;2023-04-01T04:23:54;98986.72;;;9.52;100.00
10668;BME280;5382;42.136;24.796;2023-04-01T04:26:21;98978.81;;;9.52;100.00
10668;BME280;5382;42.136;24.796;2023-04-01T04:28:48;98986.19;;;9.69;100.00
10668;BME280;5382;42.136;24.796;2023-04-01T04:31:18;98990.38;;;9.72;100.00
10668;BME280;5382;42.136;24.796;2023-04-01T04:33:45;98989.63;;;9.81;100.00
10668;BME280;5382;42.136;24.796;2023-04-01T04:36:12;98989.28;;;9.95;100.00
10668;BME280;5382;42.136;24.796;2023-04-01T04:38:40;98987.81;;;10.02;100.00
10668;BME280;5382;42.136;24.796;2023-04-01T04:41:10;98978.44;;;9.98;100.00
10668;BME280;5382;42.136;24.796;2023-04-01T04:43:38;98983.44;;;9.92;100.00
10668;BME280;5382;42.136;24.796;2023-04-01T04:46:05;98970.72;;;10.07;100.00
10668;BME280;5382;42.136;24.796;2023-04-01T04:48:32;98982.44;;;10.14;100.00
10668;BME280;5382;42.136;24.796;2023-04-01T04:50:59;98966.78;;;10.01;100.00
10668;BME280;5382;42.136;24.796;2023-04-01T04:53:27;98987.06;;;10.21;100.00
10668;BME280;5382;42.136;24.796;2023-04-01T04:55:54;98987.47;;;10.17;100.00
10668;BME280;5382;42.136;24.796;2023-04-01T04:58:22;98992.09;;;10.24;100.00
10668;BME280;5382;42.136;24.796;2023-04-01T05:00:49;99001.72;;;10.46;100.00
10668;BME280;5382;42.136;24.796;2023-04-01T05:03:16;98987.22;;;10.41;100.00
10668;BME280;5382;42.136;24.796;2023-04-01T05:05:48;99003.88;;;10.62;100.00
10668;BME280;5382;42.136;24.796;2023-04-01T05:08:16;98990.97;;;10.69;100.00
10668;BME280;5382;42.136;24.796;2023-04-01T05:10:43;98985.91;;;10.56;100.00
10668;BME280;5382;42.136;24.796;2023-04-01T05:13:10;98992.63;;;10.70;100.00
10668;BME280;5382;42.136;24.796;2023-04-01T05:15:38;98995.69;;;10.65;100.00
10668;BME280;5382;42.136;24.796;2023-04-01T05:18:05;98985.25;;;10.74;100.00
10668;BME280;5382;42.136;24.796;2023-04-01T05:20:32;98993.19;;;10.64;100.00
10668;BME280;5382;42.136;24.796;2023-04-01T05:22:59;98995.69;;;10.65;100.00
10668;BME280;5382;42.136;24.796;2023-04-01T05:25:26;98974.00;;;10.81;100.00
10668;BME280;5382;42.136;24.796;2023-04-01T05:27:53;98979.34;;;10.91;100.00
10668;BME280;5382;42.136;24.796;2023-04-01T05:30:20;98982.63;;;10.74;100.00
10668;BME280;5382;42.136;24.796;2023-04-01T05:32:48;98980.84;;;10.74;100.00
10668;BME280;5382;42.136;24.796;2023-04-01T05:35:15;98975.63;;;10.63;100.00
10668;BME280;5382;42.136;24.796;2023-04-01T05:37:42;98980.06;;;10.62;100.00
10668;BME280;5382;42.136;24.796;2023-04-01T05:40:09;98980.56;;;10.46;100.00
10668;BME280;5382;42.136;24.796;2023-04-01T05:42:36;98976.72;;;10.60;100.00
10668;BME280;5382;42.136;24.796;2023-04-01T05:45:04;98955.66;;;10.49;100.00
10668;BME280;5382;42.136;24.796;2023-04-01T05:47:31;98952.47;;;10.55;100.00
10668;BME280;5382;42.136;24.796;2023-04-01T05:49:59;98935.81;;;10.64;100.00
10668;BME280;5382;42.136;24.796;2023-04-01T05:52:26;98940.72;;;10.79;100.00
10668;BME280;5382;42.136;24.796;2023-04-01T05:54:53;98936.97;;;10.81;100.00
10668;BME280;5382;42.136;24.796;2023-04-01T05:57:20;98929.19;;;10.80;100.00
10668;BME280;5382;42.136;24.796;2023-04-01T05:59:46;98918.16;;;10.75;100.00
10668;BME280;5382;42.136;24.796;2023-04-01T06:02:17;98911.84;;;10.56;100.00
10668;BME280;5382;42.136;24.796;2023-04-01T06:04:44;98911.59;;;10.69;100.00
10668;BME280;5382;42.136;24.796;2023-04-01T06:07:13;98904.06;;;10.64;100.00
10668;BME280;5382;42.136;24.796;2023-04-01T06:09:41;98902.81;;;10.68;100.00
10668;BME280;5382;42.136;24.796;2023-04-01T06:12:28;98921.81;;;10.93;100.00
10668;BME280;5382;42.136;24.796;2023-04-01T06:15:09;98917.34;;;10.94;100.00
10668;BME280;5382;42.136;24.796;2023-04-01T06:17:52;98912.22;;;11.11;100.00
10668;BME280;5382;42.136;24.796;2023-04-01T06:20:29;98893.97;;;10.99;100.00
10668;BME280;5382;42.136;24.796;2023-04-01T06:23:10;98881.69;;;11.07;100.00
10668;BME280;5382;42.136;24.796;2023-04-01T06:25:53;98859.56;;;11.08;100.00
10668;BME280;5382;42.136;24.796;2023-04-01T06:28:42;98882.13;;;11.22;100.00
10668;BME280;5382;42.136;24.796;2023-04-01T06:31:23;98871.81;;;11.19;100.00
10668;BME280;5382;42.136;24.796;2023-04-01T06:34:06;98862.75;;;11.22;100.00
10668;BME280;5382;42.136;24.796;2023-04-01T06:37:03;98887.44;;;11.32;100.00
10668;BME280;5382;42.136;24.796;2023-04-01T06:42:54;98885.34;;;11.26;100.00
10668;BME280;5382;42.136;24.796;2023-04-01T06:45:32;98890.22;;;11.40;100.00
10668;BME280;5382;42.136;24.796;2023-04-01T06:48:13;98901.63;;;11.50;100.00
10668;BME280;5382;42.136;24.796;2023-04-01T06:50:51;98884.50;;;11.64;100.00
10668;BME280;5382;42.136;24.796;2023-04-01T06:53:24;98880.94;;;11.83;100.00
10668;BME280;5382;42.136;24.796;2023-04-01T06:56:00;98887.09;;;11.93;100.00
10668;BME280;5382;42.136;24.796;2023-04-01T06:58:34;98855.84;;;11.87;100.00
10668;BME280;5382;42.136;24.796;2023-04-01T07:01:04;98872.50;;;12.17;100.00
10668;BME280;5382;42.136;24.796;2023-04-01T07:03:34;98897.97;;;12.37;100.00
10668;BME280;5382;42.136;24.796;2023-04-01T07:06:04;98884.88;;;12.26;100.00
10668;BME280;5382;42.136;24.796;2023-04-01T07:08:34;98895.31;;;12.37;100.00
10668;BME280;5382;42.136;24.796;2023-04-01T07:11:04;98886.56;;;12.27;100.00
10668;BME280;5382;42.136;24.796;2023-04-01T07:13:35;98876.78;;;12.28;100.00
10668;BME280;5382;42.136;24.796;2023-04-01T07:16:12;98869.94;;;12.25;100.00
10668;BME280;5382;42.136;24.796;2023-04-01T07:18:43;98865.25;;;12.19;100.00
10668;BME280;5382;42.136;24.796;2023-04-01T07:21:23;98866.31;;;12.26;100.00
10668;BME280;5382;42.136;24.796;2023-04-01T07:23:52;98848.69;;;12.62;100.00
10668;BME280;5382;42.136;24.796;2023-04-01T07:26:22;98857.63;;;12.79;100.00
10668;BME280;5382;42.136;24.796;2023-04-01T07:28:53;98849.81;;;12.96;100.00
10668;BME280;5382;42.136;24.796;2023-04-01T07:31:29;98833.31;;;13.02;100.00
10668;BME280;5382;42.136;24.796;2023-04-01T07:34:04;98841.78;;;13.05;100.00
10668;BME280;5382;42.136;24.796;2023-04-01T07:36:38;98840.28;;;13.03;100.00
10668;BME280;5382;42.136;24.796;2023-04-01T07:39:12;98837.16;;;13.07;100.00
10668;BME280;5382;42.136;24.796;2023-04-01T07:41:50;98835.41;;;13.16;100.00
10668;BME280;5382;42.136;24.796;2023-04-01T07:44:25;98837.22;;;13.16;100.00
10668;BME280;5382;42.136;24.796;2023-04-01T07:47:10;98828.44;;;13.15;100.00
10668;BME280;5382;42.136;24.796;2023-04-01T07:49:47;98828.47;;;13.33;100.00
10668;BME280;5382;42.136;24.796;2023-04-01T07:52:20;98831.53;;;13.46;100.00
10668;BME280;5382;42.136;24.796;2023-04-01T07:54:56;98829.56;;;13.48;100.00
10668;BME280;5382;42.136;24.796;2023-04-01T07:57:30;98832.88;;;13.68;100.00
10668;BME280;5382;42.136;24.796;2023-04-01T08:00:08;98842.53;;;13.78;100.00
10668;BME280;5382;42.136;24.796;2023-04-01T08:02:48;98850.16;;;13.72;100.00
10668;BME280;5382;42.136;24.796;2023-04-01T08:05:23;98831.16;;;13.93;100.00
10668;BME280;5382;42.136;24.796;2023-04-01T08:07:58;98832.09;;;14.10;100.00
10668;BME280;5382;42.136;24.796;2023-04-01T08:10:35;98817.59;;;14.05;100.00
10668;BME280;5382;42.136;24.796;2023-04-01T08:13:10;98818.25;;;14.07;100.00
10668;BME280;5382;42.136;24.796;2023-04-01T08:15:48;98822.41;;;14.01;100.00
10668;BME280;5382;42.136;24.796;2023-04-01T08:18:27;98810.91;;;13.92;100.00
10668;BME280;5382;42.136;24.796;2023-04-01T08:20:59;98800.00;;;13.78;100.00
10668;BME280;5382;42.136;24.796;2023-04-01T08:23:28;98789.34;;;13.69;100.00
10668;BME280;5382;42.136;24.796;2023-04-01T08:26:02;98786.53;;;13.71;100.00
10668;BME280;5382;42.136;24.796;2023-04-01T08:28:34;98788.97;;;13.99;100.00
10668;BME280;5382;42.136;24.796;2023-04-01T08:31:07;98792.16;;;14.02;100.00
10668;BME280;5382;42.136;24.796;2023-04-01T08:33:36;98789.22;;;14.13;100.00
10668;BME280;5382;42.136;24.796;2023-04-01T08:36:08;98772.28;;;14.23;100.00
10668;BME280;5382;42.136;24.796;2023-04-01T08:38:40;98770.81;;;14.28;100.00
10668;BME280;5382;42.136;24.796;2023-04-01T08:41:33;98769.19;;;14.44;100.00
10668;BME280;5382;42.136;24.796;2023-04-01T08:47:23;98766.09;;;14.65;100.00
10668;BME280;5382;42.136;24.796;2023-04-01T08:50:21;98757.63;;;14.86;100.00
10668;BME280;5382;42.136;24.796;2023-04-01T08:52:52;98748.66;;;14.95;100.00
10668;BME280;5382;42.136;24.796;2023-04-01T08:55:36;98747.63;;;15.12;100.00
10668;BME280;5382;42.136;24.796;2023-04-01T08:58:33;98738.47;;;15.31;100.00
10668;BME280;5382;42.136;24.796;2023-04-01T09:01:19;98727.91;;;15.46;100.00
10668;BME280;5382;42.136;24.796;2023-04-01T09:06:52;98728.44;;;15.49;100.00
10668;BME280;5382;42.136;24.796;2023-04-01T09:09:45;98715.13;;;15.33;100.00
10668;BME280;5382;42.136;24.796;2023-04-01T09:15:25;98695.66;;;15.24;100.00
10668;BME280;5382;42.136;24.796;2023-04-01T09:18:24;98699.31;;;15.15;100.00
10668;BME280;5382;42.136;24.796;2023-04-01T09:21:17;98693.16;;;15.23;100.00
10668;BME280;5382;42.136;24.796;2023-04-01T09:24:06;98638.91;;;14.99;100.00
10668;BME280;5382;42.136;24.796;2023-04-01T09:26:55;98666.72;;;15.13;100.00
10668;BME280;5382;42.136;24.796;2023-04-01T09:29:42;98660.25;;;15.08;100.00
10668;BME280;5382;42.136;24.796;2023-04-01T09:32:33;98662.03;;;15.15;100.00
10668;BME280;5382;42.136;24.796;2023-04-01T09:35:20;98651.41;;;14.99;100.00
10668;BME280;5382;42.136;24.796;2023-04-01T09:37:54;98647.78;;;15.00;100.00
10668;BME280;5382;42.136;24.796;2023-04-01T09:40:35;98645.38;;;15.21;100.00
10668;BME280;5382;42.136;24.796;2023-04-01T09:43:21;98640.03;;;15.30;100.00
10668;BME280;5382;42.136;24.796;2023-04-01T09:46:05;98646.13;;;15.38;100.00
10668;BME280;5382;42.136;24.796;2023-04-01T09:48:52;98655.47;;;15.42;100.00
10668;BME280;5382;42.136;24.796;2023-04-01T09:51:30;98654.53;;;15.66;100.00
10668;BME280;5382;42.136;24.796;2023-04-01T09:54:13;98648.31;;;15.82;100.00
10668;BME280;5382;42.136;24.796;2023-04-01T10:00:23;98637.34;;;16.31;100.00
10668;BME280;5382;42.136;24.796;2023-04-01T10:12:34;98600.03;;;16.23;100.00
10668;BME280;5382;42.136;24.796;2023-04-01T10:15:29;98598.53;;;16.44;100.00
10668;BME280;5382;42.136;24.796;2023-04-01T10:27:37;98577.03;;;17.28;100.00
10668;BME280;5382;42.136;24.796;2023-04-01T10:30:30;98555.78;;;17.56;100.00
10668;BME280;5382;42.136;24.796;2023-04-01T10:33:19;98542.25;;;17.42;100.00
10668;BME280;5382;42.136;24.796;2023-04-01T10:36:12;98563.38;;;17.37;100.00
10668;BME280;5382;42.136;24.796;2023-04-01T10:48:11;98516.22;;;17.87;100.00
10668;BME280;5382;42.136;24.796;2023-04-01T10:51:14;98509.13;;;18.01;100.00
10668;BME280;5382;42.136;24.796;2023-04-01T10:56:38;98490.47;;;17.86;100.00
10668;BME280;5382;42.136;24.796;2023-04-01T11:05:42;98451.59;;;17.69;100.00
10668;BME280;5382;42.136;24.796;2023-04-01T11:08:47;98443.44;;;17.77;100.00
10668;BME280;5382;42.136;24.796;2023-04-01T11:14:39;98444.81;;;18.16;100.00
10668;BME280;5382;42.136;24.796;2023-04-01T11:17:42;98459.06;;;17.95;100.00
10668;BME280;5382;42.136;24.796;2023-04-01T11:20:33;98449.75;;;18.19;100.00
10668;BME280;5382;42.136;24.796;2023-04-01T11:23:21;98436.16;;;18.49;100.00
10668;BME280;5382;42.136;24.796;2023-04-01T11:26:00;98425.47;;;18.90;100.00
10668;BME280;5382;42.136;24.796;2023-04-01T11:28:42;98416.16;;;19.48;100.00
10668;BME280;5382;42.136;24.796;2023-04-01T11:31:26;98425.44;;;19.45;100.00
10668;BME280;5382;42.136;24.796;2023-04-01T11:34:02;98421.94;;;19.58;100.00
10668;BME280;5382;42.136;24.796;2023-04-01T11:36:40;98422.81;;;19.92;97.03
10668;BME280;5382;42.136;24.796;2023-04-01T11:39:17;98420.53;;;20.22;96.35
10668;BME280;5382;42.136;24.796;2023-04-01T11:41:52;98405.16;;;20.62;93.74
10668;BME280;5382;42.136;24.796;2023-04-01T11:44:25;98382.88;;;21.00;91.86
10668;BME280;5382;42.136;24.796;2023-04-01T11:47:12;98379.19;;;21.33;89.27
10668;BME280;5382;42.136;24.796;2023-04-01T11:49:55;98387.19;;;21.46;83.96
10668;BME280;5382;42.136;24.796;2023-04-01T11:52:51;98361.53;;;21.37;86.57
10668;BME280;5382;42.136;24.796;2023-04-01T11:55:26;98359.50;;;21.01;89.17
10668;BME280;5382;42.136;24.796;2023-04-01T11:58:10;98366.63;;;20.82;87.57
10668;BME280;5382;42.136;24.796;2023-04-01T12:01:05;98372.59;;;20.32;92.13
10668;BME280;5382;42.136;24.796;2023-04-01T12:04:00;98381.69;;;20.24;94.40
10668;BME280;5382;42.136;24.796;2023-04-01T12:06:37;98365.22;;;20.01;95.19
10668;BME280;5382;42.136;24.796;2023-04-01T12:09:14;98366.25;;;19.87;97.52
10668;BME280;5382;42.136;24.796;2023-04-01T12:11:50;98365.00;;;19.69;99.34
10668;BME280;5382;42.136;24.796;2023-04-01T12:14:22;98355.69;;;19.52;100.00
10668;BME280;5382;42.136;24.796;2023-04-01T12:17:03;98355.91;;;19.97;97.26
10668;BME280;5382;42.136;24.796;2023-04-01T12:19:41;98355.72;;;19.98;95.13
10668;BME280;5382;42.136;24.796;2023-04-01T12:22:27;98338.97;;;19.63;97.72
10668;BME280;5382;42.136;24.796;2023-04-01T12:25:05;98320.19;;;19.63;98.27
10668;BME280;5382;42.136;24.796;2023-04-01T12:27:48;98308.59;;;20.02;95.89
10668;BME280;5382;42.136;24.796;2023-04-01T12:30:49;98304.56;;;20.90;89.21
10668;BME280;5382;42.136;24.796;2023-04-01T12:33:46;98282.56;;;21.82;80.79
10668;BME280;5382;42.136;24.796;2023-04-01T12:36:28;98291.50;;;21.94;78.02
10668;BME280;5382;42.136;24.796;2023-04-01T12:39:17;98292.13;;;21.52;80.69
10668;BME280;5382;42.136;24.796;2023-04-01T12:41:54;98283.88;;;21.22;82.48
10668;BME280;5382;42.136;24.796;2023-04-01T12:44:37;98285.34;;;20.86;84.71
10668;BME280;5382;42.136;24.796;2023-04-01T12:47:27;98271.72;;;20.81;87.60
10668;BME280;5382;42.136;24.796;2023-04-01T12:53:20;98276.47;;;20.86;89.55
10668;BME280;5382;42.136;24.796;2023-04-01T12:55:52;98256.50;;;21.00;88.25
10668;BME280;5382;42.136;24.796;2023-04-01T12:58:41;98246.69;;;21.12;87.88
10668;BME280;5382;42.136;24.796;2023-04-01T13:01:35;98246.53;;;20.76;92.50
10668;BME280;5382;42.136;24.796;2023-04-01T13:07:41;98250.72;;;20.65;95.23
10668;BME280;5382;42.136;24.796;2023-04-01T13:10:25;98249.34;;;20.87;93.36
10668;BME280;5382;42.136;24.796;2023-04-01T13:13:11;98243.28;;;22.29;82.84
10668;BME280;5382;42.136;24.796;2023-04-01T13:15:47;98235.28;;;22.83;77.46
10668;BME280;5382;42.136;24.796;2023-04-01T13:18:25;98216.50;;;23.06;73.41
10668;BME280;5382;42.136;24.796;2023-04-01T13:21:01;98234.16;;;22.91;74.05
10668;BME280;5382;42.136;24.796;2023-04-01T13:23:47;98233.66;;;22.52;76.61
10668;BME280;5382;42.136;24.796;2023-04-01T13:26:21;98246.50;;;22.68;75.22
10668;BME280;5382;42.136;24.796;2023-04-01T13:28:56;98232.06;;;21.77;78.61
10668;BME280;5382;42.136;24.796;2023-04-01T13:31:36;98235.44;;;21.47;81.04
10668;BME280;5382;42.136;24.796;2023-04-01T13:34:19;98275.75;;;20.97;83.30
10668;BME280;5382;42.136;24.796;2023-04-01T13:36:59;98315.44;;;19.65;92.15
10668;BME280;5382;42.136;24.796;2023-04-01T13:39:39;98428.88;;;18.36;100.00
10668;BME280;5382;42.136;24.796;2023-04-01T13:42:16;98369.19;;;17.36;100.00
10668;BME280;5382;42.136;24.796;2023-04-01T13:44:48;98381.44;;;17.46;100.00
10668;BME280;5382;42.136;24.796;2023-04-01T13:47:43;98414.06;;;17.19;100.00
10668;BME280;5382;42.136;24.796;2023-04-01T13:56:34;98463.34;;;16.81;100.00
10668;BME280;5382;42.136;24.796;2023-04-01T13:59:36;98515.16;;;16.56;100.00
10668;BME280;5382;42.136;24.796;2023-04-01T14:02:25;98466.81;;;16.51;100.00
10668;BME280;5382;42.136;24.796;2023-04-01T14:05:14;98510.03;;;16.17;100.00
10668;BME280;5382;42.136;24.796;2023-04-01T14:07:56;98553.41;;;15.65;100.00
10668;BME280;5382;42.136;24.796;2023-04-01T14:10:33;98525.59;;;15.28;100.00
10668;BME280;5382;42.136;24.796;2023-04-01T14:13:07;98539.63;;;15.22;100.00
10668;BME280;5382;42.136;24.796;2023-04-01T14:15:42;98537.13;;;15.20;100.00
10668;BME280;5382;42.136;24.796;2023-04-01T14:18:30;98554.13;;;15.19;100.00
10668;BME280;5382;42.136;24.796;2023-04-01T14:21:11;98556.38;;;15.39;100.00
10668;BME280;5382;42.136;24.796;2023-04-01T14:24:02;98536.28;;;15.59;100.00
10668;BME280;5382;42.136;24.796;2023-04-01T14:26:57;98533.31;;;15.85;100.00
10668;BME280;5382;42.136;24.796;2023-04-01T14:29:32;98523.41;;;16.32;100.00
10668;BME280;5382;42.136;24.796;2023-04-01T14:32:08;98508.03;;;17.02;100.00
10668;BME280;5382;42.136;24.796;2023-04-01T14:34:52;98495.84;;;16.99;100.00
10668;BME280;5382;42.136;24.796;2023-04-01T14:37:36;98489.75;;;17.05;100.00
10668;BME280;5382;42.136;24.796;2023-04-01T14:40:26;98467.03;;;17.31;100.00
10668;BME280;5382;42.136;24.796;2023-04-01T14:43:16;98476.50;;;17.12;100.00
10668;BME280;5382;42.136;24.796;2023-04-01T14:46:09;98491.63;;;16.90;100.00